sensor_id;sensor_type;location;lat;lon;timestamp;P1;durP1;ratioP1;P2;durP2;ratioP2
44438;SDS011;30145;48.874;10.186;2023-07-16T00:00:27;7.27;;;3.90;;
44438;SDS011;30145;48.874;10.186;2023-07-16T00:02:54;4.23;;;3.50;;
44438;SDS011;30145;48.874;10.186;2023-07-16T00:05:21;3.60;;;3.20;;
44438;SDS011;30145;48.874;10.186;2023-07-16T00:07:48;3.80;;;3.20;;
44438;SDS011;30145;48.874;10.186;2023-07-16T00:10:15;3.90;;;3.43;;
44438;SDS011;30145;48.874;10.186;2023-07-16T00:12:42;4.40;;;3.10;;
44438;SDS011;30145;48.874;10.186;2023-07-16T00:15:09;4.17;;;3.23;;
44438;SDS011;30145;48.874;10.186;2023-07-16T00:17:36;3.10;;;2.80;;
44438;SDS011;30145;48.874;10.186;2023-07-16T00:20:04;3.93;;;3.23;;
44438;SDS011;30145;48.874;10.186;2023-07-16T00:22:32;5.97;;;2.80;;
44438;SDS011;30145;48.874;10.186;2023-07-16T00:24:59;3.33;;;2.70;;
44438;SDS011;30145;48.874;10.186;2023-07-16T00:27:26;3.63;;;2.60;;
44438;SDS011;30145;48.874;10.186;2023-07-16T00:29:53;4.90;;;3.03;;
44438;SDS011;30145;48.874;10.186;2023-07-16T00:32:20;4.23;;;3.03;;
44438;SDS011;30145;48.874;10.186;2023-07-16T00:34:47;3.00;;;2.63;;
44438;SDS011;30145;48.874;10.186;2023-07-16T00:37:14;4.03;;;2.10;;
44438;SDS011;30145;48.874;10.186;2023-07-16T00:39:42;2.30;;;2.10;;
44438;SDS011;30145;48.874;10.186;2023-07-16T00:42:10;2.60;;;2.40;;
44438;SDS011;30145;48.874;10.186;2023-07-16T00:44:37;3.70;;;1.87;;
44438;SDS011;30145;48.874;10.186;2023-07-16T00:47:04;2.13;;;1.93;;
44438;SDS011;30145;48.874;10.186;2023-07-16T00:49:31;2.73;;;2.00;;
44438;SDS011;30145;48.874;10.186;2023-07-16T00:51:58;3.47;;;2.17;;
44438;SDS011;30145;48.874;10.186;2023-07-16T00:54:26;1.80;;;1.70;;
44438;SDS011;30145;48.874;10.186;2023-07-16T00:56:53;2.63;;;2.13;;
44438;SDS011;30145;48.874;10.186;2023-07-16T00:59:20;2.93;;;1.83;;
44438;SDS011;30145;48.874;10.186;2023-07-16T01:01:47;2.00;;;1.70;;
44438;SDS011;30145;48.874;10.186;2023-07-16T01:04:14;3.77;;;2.17;;
44438;SDS011;30145;48.874;10.186;2023-07-16T01:06:43;1.83;;;1.40;;
44438;SDS011;30145;48.874;10.186;2023-07-16T01:09:17;2.23;;;1.70;;
44438;SDS011;30145;48.874;10.186;2023-07-16T01:14:13;1.87;;;1.40;;
44438;SDS011;30145;48.874;10.186;2023-07-16T01:19:09;1.77;;;1.50;;
44438;SDS011;30145;48.874;10.186;2023-07-16T01:32:31;1.40;;;1.00;;
44438;SDS011;30145;48.874;10.186;2023-07-16T01:34:58;2.43;;;0.90;;
44438;SDS011;30145;48.874;10.186;2023-07-16T01:37:26;1.77;;;1.00;;
44438;SDS011;30145;48.874;10.186;2023-07-16T01:39:53;1.27;;;1.00;;
44438;SDS011;30145;48.874;10.186;2023-07-16T01:42:20;1.60;;;0.90;;
44438;SDS011;30145;48.874;10.186;2023-07-16T01:44:47;1.43;;;1.10;;
44438;SDS011;30145;48.874;10.186;2023-07-16T01:49:47;1.43;;;1.07;;
44438;SDS011;30145;48.874;10.186;2023-07-16T01:52:14;1.30;;;1.20;;
44438;SDS011;30145;48.874;10.186;2023-07-16T01:54:41;1.40;;;1.17;;
44438;SDS011;30145;48.874;10.186;2023-07-16T01:57:08;1.47;;;0.97;;
44438;SDS011;30145;48.874;10.186;2023-07-16T01:59:35;1.20;;;1.10;;
44438;SDS011;30145;48.874;10.186;2023-07-16T02:02:02;1.30;;;1.07;;
44438;SDS011;30145;48.874;10.186;2023-07-16T02:04:29;1.47;;;1.00;;
44438;SDS011;30145;48.874;10.186;2023-07-16T02:06:56;2.27;;;1.10;;
44438;SDS011;30145;48.874;10.186;2023-07-16T02:09:23;1.57;;;0.73;;
44438;SDS011;30145;48.874;10.186;2023-07-16T02:11:51;1.00;;;0.80;;
44438;SDS011;30145;48.874;10.186;2023-07-16T02:14:18;1.10;;;1.00;;
44438;SDS011;30145;48.874;10.186;2023-07-16T02:16:45;0.93;;;0.90;;
44438;SDS011;30145;48.874;10.186;2023-07-16T02:19:12;1.13;;;0.80;;
44438;SDS011;30145;48.874;10.186;2023-07-16T02:21:40;0.97;;;0.70;;
44438;SDS011;30145;48.874;10.186;2023-07-16T02:24:07;0.97;;;0.87;;
44438;SDS011;30145;48.874;10.186;2023-07-16T02:26:33;1.17;;;0.80;;
44438;SDS011;30145;48.874;10.186;2023-07-16T02:29:00;1.00;;;0.70;;
44438;SDS011;30145;48.874;10.186;2023-07-16T02:31:27;1.33;;;0.87;;
44438;SDS011;30145;48.874;10.186;2023-07-16T02:33:54;1.00;;;0.90;;
44438;SDS011;30145;48.874;10.186;2023-07-16T02:36:21;1.00;;;0.90;;
44438;SDS011;30145;48.874;10.186;2023-07-16T02:38:48;1.23;;;0.77;;
44438;SDS011;30145;48.874;10.186;2023-07-16T02:41:15;1.17;;;0.80;;
44438;SDS011;30145;48.874;10.186;2023-07-16T02:43:44;1.37;;;0.90;;
44438;SDS011;30145;48.874;10.186;2023-07-16T02:46:12;1.03;;;0.80;;
44438;SDS011;30145;48.874;10.186;2023-07-16T02:48:39;1.70;;;0.90;;
44438;SDS011;30145;48.874;10.186;2023-07-16T02:51:06;1.60;;;0.97;;
44438;SDS011;30145;48.874;10.186;2023-07-16T02:53:33;1.70;;;0.70;;
44438;SDS011;30145;48.874;10.186;2023-07-16T02:56:00;1.40;;;1.10;;
44438;SDS011;30145;48.874;10.186;2023-07-16T02:58:27;1.23;;;0.90;;
44438;SDS011;30145;48.874;10.186;2023-07-16T03:00:54;1.40;;;1.00;;
44438;SDS011;30145;48.874;10.186;2023-07-16T03:03:21;2.17;;;1.00;;
44438;SDS011;30145;48.874;10.186;2023-07-16T03:05:48;1.50;;;1.17;;
44438;SDS011;30145;48.874;10.186;2023-07-16T03:08:15;2.13;;;1.20;;
44438;SDS011;30145;48.874;10.186;2023-07-16T03:10:42;1.33;;;1.00;;
44438;SDS011;30145;48.874;10.186;2023-07-16T03:13:09;2.47;;;1.13;;
44438;SDS011;30145;48.874;10.186;2023-07-16T03:15:36;1.47;;;1.20;;
44438;SDS011;30145;48.874;10.186;2023-07-16T03:18:03;1.87;;;1.20;;
44438;SDS011;30145;48.874;10.186;2023-07-16T03:20:30;1.33;;;1.23;;
44438;SDS011;30145;48.874;10.186;2023-07-16T03:22:57;2.37;;;1.37;;
44438;SDS011;30145;48.874;10.186;2023-07-16T03:25:24;1.47;;;1.37;;
44438;SDS011;30145;48.874;10.186;2023-07-16T03:27:51;1.87;;;1.50;;
44438;SDS011;30145;48.874;10.186;2023-07-16T03:30:18;3.57;;;1.50;;
44438;SDS011;30145;48.874;10.186;2023-07-16T03:32:45;1.43;;;1.30;;
44438;SDS011;30145;48.874;10.186;2023-07-16T03:35:17;1.80;;;1.07;;
44438;SDS011;30145;48.874;10.186;2023-07-16T03:37:44;2.50;;;1.57;;
44438;SDS011;30145;48.874;10.186;2023-07-16T03:40:14;1.50;;;1.20;;
44438;SDS011;30145;48.874;10.186;2023-07-16T03:42:42;1.30;;;1.17;;
44438;SDS011;30145;48.874;10.186;2023-07-16T03:45:10;1.97;;;1.33;;
44438;SDS011;30145;48.874;10.186;2023-07-16T03:47:37;2.57;;;1.20;;
44438;SDS011;30145;48.874;10.186;2023-07-16T03:50:04;3.63;;;1.57;;
44438;SDS011;30145;48.874;10.186;2023-07-16T03:52:32;2.10;;;1.43;;
44438;SDS011;30145;48.874;10.186;2023-07-16T03:54:59;2.73;;;1.30;;
44438;SDS011;30145;48.874;10.186;2023-07-16T03:57:28;2.93;;;1.30;;
44438;SDS011;30145;48.874;10.186;2023-07-16T03:59:55;2.20;;;1.10;;
44438;SDS011;30145;48.874;10.186;2023-07-16T04:02:22;1.80;;;1.47;;
44438;SDS011;30145;48.874;10.186;2023-07-16T04:04:50;1.80;;;1.33;;
44438;SDS011;30145;48.874;10.186;2023-07-16T04:07:17;2.47;;;1.30;;
44438;SDS011;30145;48.874;10.186;2023-07-16T04:09:44;2.13;;;1.30;;
44438;SDS011;30145;48.874;10.186;2023-07-16T04:12:11;4.20;;;1.73;;
44438;SDS011;30145;48.874;10.186;2023-07-16T04:14:38;3.03;;;1.60;;
44438;SDS011;30145;48.874;10.186;2023-07-16T04:17:05;3.00;;;1.37;;
44438;SDS011;30145;48.874;10.186;2023-07-16T04:19:32;2.53;;;1.23;;
44438;SDS011;30145;48.874;10.186;2023-07-16T04:21:59;5.73;;;2.00;;
44438;SDS011;30145;48.874;10.186;2023-07-16T04:24:27;1.90;;;1.27;;
44438;SDS011;30145;48.874;10.186;2023-07-16T04:26:54;4.10;;;1.47;;
44438;SDS011;30145;48.874;10.186;2023-07-16T04:29:21;2.53;;;1.30;;
44438;SDS011;30145;48.874;10.186;2023-07-16T04:31:48;2.70;;;1.43;;
44438;SDS011;30145;48.874;10.186;2023-07-16T04:34:15;3.53;;;1.50;;
44438;SDS011;30145;48.874;10.186;2023-07-16T04:36:42;2.00;;;1.30;;
44438;SDS011;30145;48.874;10.186;2023-07-16T04:39:09;1.47;;;1.37;;
44438;SDS011;30145;48.874;10.186;2023-07-16T04:41:36;2.67;;;1.33;;
44438;SDS011;30145;48.874;10.186;2023-07-16T04:44:04;1.53;;;1.43;;
44438;SDS011;30145;48.874;10.186;2023-07-16T04:46:32;2.57;;;1.20;;
44438;SDS011;30145;48.874;10.186;2023-07-16T04:49:01;2.60;;;1.43;;
44438;SDS011;30145;48.874;10.186;2023-07-16T04:51:28;2.37;;;1.33;;
44438;SDS011;30145;48.874;10.186;2023-07-16T04:53:55;2.80;;;1.77;;
44438;SDS011;30145;48.874;10.186;2023-07-16T04:56:22;6.27;;;1.50;;
44438;SDS011;30145;48.874;10.186;2023-07-16T04:58:49;1.87;;;1.40;;
44438;SDS011;30145;48.874;10.186;2023-07-16T05:01:16;3.03;;;1.20;;
44438;SDS011;30145;48.874;10.186;2023-07-16T05:03:43;2.43;;;1.70;;
44438;SDS011;30145;48.874;10.186;2023-07-16T05:06:10;2.00;;;1.47;;
44438;SDS011;30145;48.874;10.186;2023-07-16T05:08:37;3.00;;;1.60;;
44438;SDS011;30145;48.874;10.186;2023-07-16T05:11:04;3.57;;;1.43;;
44438;SDS011;30145;48.874;10.186;2023-07-16T05:13:31;2.37;;;1.57;;
44438;SDS011;30145;48.874;10.186;2023-07-16T05:15:58;1.87;;;1.63;;
44438;SDS011;30145;48.874;10.186;2023-07-16T05:18:25;2.07;;;1.60;;
44438;SDS011;30145;48.874;10.186;2023-07-16T05:20:52;2.07;;;1.67;;
44438;SDS011;30145;48.874;10.186;2023-07-16T05:23:19;2.27;;;1.40;;
44438;SDS011;30145;48.874;10.186;2023-07-16T05:25:47;1.80;;;1.40;;
44438;SDS011;30145;48.874;10.186;2023-07-16T05:28:15;3.23;;;1.60;;
44438;SDS011;30145;48.874;10.186;2023-07-16T05:30:42;3.20;;;1.30;;
44438;SDS011;30145;48.874;10.186;2023-07-16T05:33:10;2.07;;;1.60;;
44438;SDS011;30145;48.874;10.186;2023-07-16T05:35:38;1.90;;;1.33;;
44438;SDS011;30145;48.874;10.186;2023-07-16T05:38:05;2.60;;;1.60;;
44438;SDS011;30145;48.874;10.186;2023-07-16T05:40:32;4.10;;;1.60;;
44438;SDS011;30145;48.874;10.186;2023-07-16T05:43:00;3.53;;;1.60;;
44438;SDS011;30145;48.874;10.186;2023-07-16T05:45:27;2.53;;;1.47;;
44438;SDS011;30145;48.874;10.186;2023-07-16T05:47:54;3.13;;;1.70;;
44438;SDS011;30145;48.874;10.186;2023-07-16T05:50:21;4.80;;;1.53;;
44438;SDS011;30145;48.874;10.186;2023-07-16T05:52:48;2.47;;;1.43;;
44438;SDS011;30145;48.874;10.186;2023-07-16T05:55:15;2.00;;;1.60;;
44438;SDS011;30145;48.874;10.186;2023-07-16T05:57:42;2.93;;;1.60;;
44438;SDS011;30145;48.874;10.186;2023-07-16T06:00:09;3.47;;;1.53;;
44438;SDS011;30145;48.874;10.186;2023-07-16T06:02:37;3.80;;;1.70;;
44438;SDS011;30145;48.874;10.186;2023-07-16T06:05:04;3.87;;;1.63;;
44438;SDS011;30145;48.874;10.186;2023-07-16T06:07:31;4.30;;;1.50;;
44438;SDS011;30145;48.874;10.186;2023-07-16T06:09:58;3.80;;;1.70;;
44438;SDS011;30145;48.874;10.186;2023-07-16T06:12:26;6.03;;;1.90;;
44438;SDS011;30145;48.874;10.186;2023-07-16T06:14:52;5.23;;;1.90;;
44438;SDS011;30145;48.874;10.186;2023-07-16T06:17:19;4.77;;;1.80;;
44438;SDS011;30145;48.874;10.186;2023-07-16T06:19:46;6.27;;;2.13;;
44438;SDS011;30145;48.874;10.186;2023-07-16T06:22:16;4.13;;;1.50;;
44438;SDS011;30145;48.874;10.186;2023-07-16T06:24:43;2.90;;;1.53;;
44438;SDS011;30145;48.874;10.186;2023-07-16T06:27:10;4.63;;;2.00;;
44438;SDS011;30145;48.874;10.186;2023-07-16T06:29:37;3.97;;;1.40;;
44438;SDS011;30145;48.874;10.186;2023-07-16T06:32:05;3.67;;;1.53;;
44438;SDS011;30145;48.874;10.186;2023-07-16T06:34:32;4.13;;;1.67;;
44438;SDS011;30145;48.874;10.186;2023-07-16T06:36:59;4.00;;;1.40;;
44438;SDS011;30145;48.874;10.186;2023-07-16T06:39:26;4.00;;;1.60;;
44438;SDS011;30145;48.874;10.186;2023-07-16T06:41:53;6.53;;;2.00;;
44438;SDS011;30145;48.874;10.186;2023-07-16T06:44:21;1.93;;;1.50;;
44438;SDS011;30145;48.874;10.186;2023-07-16T06:46:49;3.07;;;1.60;;
44438;SDS011;30145;48.874;10.186;2023-07-16T06:49:16;4.57;;;1.63;;
44438;SDS011;30145;48.874;10.186;2023-07-16T06:51:43;2.80;;;1.60;;
44438;SDS011;30145;48.874;10.186;2023-07-16T06:54:10;3.40;;;1.67;;
44438;SDS011;30145;48.874;10.186;2023-07-16T06:56:37;4.07;;;1.63;;
44438;SDS011;30145;48.874;10.186;2023-07-16T06:59:05;3.27;;;1.10;;
44438;SDS011;30145;48.874;10.186;2023-07-16T07:01:32;3.77;;;1.80;;
44438;SDS011;30145;48.874;10.186;2023-07-16T07:03:59;2.87;;;1.50;;
44438;SDS011;30145;48.874;10.186;2023-07-16T07:06:26;3.87;;;1.83;;
44438;SDS011;30145;48.874;10.186;2023-07-16T07:08:53;4.20;;;1.60;;
44438;SDS011;30145;48.874;10.186;2023-07-16T07:11:20;3.40;;;1.77;;
44438;SDS011;30145;48.874;10.186;2023-07-16T07:13:47;4.43;;;1.87;;
44438;SDS011;30145;48.874;10.186;2023-07-16T07:16:14;3.03;;;1.67;;
44438;SDS011;30145;48.874;10.186;2023-07-16T07:18:41;6.97;;;1.80;;
44438;SDS011;30145;48.874;10.186;2023-07-16T07:21:08;5.33;;;1.67;;
44438;SDS011;30145;48.874;10.186;2023-07-16T07:23:35;3.90;;;1.60;;
44438;SDS011;30145;48.874;10.186;2023-07-16T07:26:02;6.20;;;1.50;;
44438;SDS011;30145;48.874;10.186;2023-07-16T07:28:29;3.90;;;1.90;;
44438;SDS011;30145;48.874;10.186;2023-07-16T07:30:57;7.33;;;1.97;;
44438;SDS011;30145;48.874;10.186;2023-07-16T07:33:24;4.17;;;1.63;;
44438;SDS011;30145;48.874;10.186;2023-07-16T07:35:53;4.67;;;1.80;;
44438;SDS011;30145;48.874;10.186;2023-07-16T07:38:21;6.60;;;1.80;;
44438;SDS011;30145;48.874;10.186;2023-07-16T07:40:48;3.00;;;1.67;;
44438;SDS011;30145;48.874;10.186;2023-07-16T07:43:15;4.47;;;1.70;;
44438;SDS011;30145;48.874;10.186;2023-07-16T07:45:43;4.07;;;1.93;;
44438;SDS011;30145;48.874;10.186;2023-07-16T07:48:10;3.37;;;1.80;;
44438;SDS011;30145;48.874;10.186;2023-07-16T07:50:37;2.30;;;1.30;;
44438;SDS011;30145;48.874;10.186;2023-07-16T07:53:04;2.20;;;1.50;;
44438;SDS011;30145;48.874;10.186;2023-07-16T07:55:33;2.30;;;1.33;;
44438;SDS011;30145;48.874;10.186;2023-07-16T07:58:01;4.47;;;1.73;;
44438;SDS011;30145;48.874;10.186;2023-07-16T08:00:28;1.87;;;1.60;;
44438;SDS011;30145;48.874;10.186;2023-07-16T08:02:55;3.73;;;2.03;;
44438;SDS011;30145;48.874;10.186;2023-07-16T08:05:22;5.70;;;1.97;;
44438;SDS011;30145;48.874;10.186;2023-07-16T08:08:08;3.37;;;1.90;;
44438;SDS011;30145;48.874;10.186;2023-07-16T08:10:35;3.83;;;1.67;;
44438;SDS011;30145;48.874;10.186;2023-07-16T08:13:02;3.10;;;1.70;;
44438;SDS011;30145;48.874;10.186;2023-07-16T08:15:29;2.90;;;1.50;;
44438;SDS011;30145;48.874;10.186;2023-07-16T08:17:57;4.33;;;1.67;;
44438;SDS011;30145;48.874;10.186;2023-07-16T08:20:26;3.30;;;1.63;;
44438;SDS011;30145;48.874;10.186;2023-07-16T08:22:54;4.50;;;1.70;;
44438;SDS011;30145;48.874;10.186;2023-07-16T08:25:23;2.80;;;1.80;;
44438;SDS011;30145;48.874;10.186;2023-07-16T08:27:50;3.37;;;1.50;;
44438;SDS011;30145;48.874;10.186;2023-07-16T08:30:17;2.30;;;1.50;;
44438;SDS011;30145;48.874;10.186;2023-07-16T08:32:44;1.93;;;1.33;;
44438;SDS011;30145;48.874;10.186;2023-07-16T08:35:11;4.70;;;1.90;;
44438;SDS011;30145;48.874;10.186;2023-07-16T08:37:43;3.53;;;1.80;;
44438;SDS011;30145;48.874;10.186;2023-07-16T08:40:11;2.57;;;1.57;;
44438;SDS011;30145;48.874;10.186;2023-07-16T08:42:39;2.53;;;1.30;;
44438;SDS011;30145;48.874;10.186;2023-07-16T08:45:06;2.77;;;2.53;;
44438;SDS011;30145;48.874;10.186;2023-07-16T08:47:34;4.87;;;2.50;;
44438;SDS011;30145;48.874;10.186;2023-07-16T08:50:02;3.00;;;1.47;;
44438;SDS011;30145;48.874;10.186;2023-07-16T08:52:29;3.80;;;1.83;;
44438;SDS011;30145;48.874;10.186;2023-07-16T08:54:57;2.83;;;1.77;;
44438;SDS011;30145;48.874;10.186;2023-07-16T08:57:24;2.63;;;1.43;;
44438;SDS011;30145;48.874;10.186;2023-07-16T08:59:52;5.80;;;2.20;;
44438;SDS011;30145;48.874;10.186;2023-07-16T09:02:20;4.40;;;1.90;;
44438;SDS011;30145;48.874;10.186;2023-07-16T09:04:48;3.27;;;1.73;;
44438;SDS011;30145;48.874;10.186;2023-07-16T09:07:15;2.93;;;1.77;;
44438;SDS011;30145;48.874;10.186;2023-07-16T09:09:42;3.87;;;1.63;;
44438;SDS011;30145;48.874;10.186;2023-07-16T09:12:12;3.10;;;1.40;;
44438;SDS011;30145;48.874;10.186;2023-07-16T09:14:42;4.13;;;1.83;;
44438;SDS011;30145;48.874;10.186;2023-07-16T09:17:10;4.17;;;1.40;;
44438;SDS011;30145;48.874;10.186;2023-07-16T09:19:37;3.67;;;1.40;;
44438;SDS011;30145;48.874;10.186;2023-07-16T09:22:04;6.13;;;1.53;;
44438;SDS011;30145;48.874;10.186;2023-07-16T09:24:31;5.20;;;1.80;;
44438;SDS011;30145;48.874;10.186;2023-07-16T09:26:58;4.90;;;1.67;;
44438;SDS011;30145;48.874;10.186;2023-07-16T09:29:28;4.70;;;1.40;;
44438;SDS011;30145;48.874;10.186;2023-07-16T09:31:55;5.37;;;1.70;;
44438;SDS011;30145;48.874;10.186;2023-07-16T09:34:27;4.20;;;1.47;;
44438;SDS011;30145;48.874;10.186;2023-07-16T09:36:55;6.30;;;1.97;;
44438;SDS011;30145;48.874;10.186;2023-07-16T09:39:23;4.37;;;1.77;;
44438;SDS011;30145;48.874;10.186;2023-07-16T09:41:51;4.93;;;1.73;;
44438;SDS011;30145;48.874;10.186;2023-07-16T09:44:19;4.30;;;1.80;;
44438;SDS011;30145;48.874;10.186;2023-07-16T09:46:46;3.17;;;1.53;;
44438;SDS011;30145;48.874;10.186;2023-07-16T09:49:14;3.47;;;1.60;;
44438;SDS011;30145;48.874;10.186;2023-07-16T09:51:42;4.03;;;1.67;;
44438;SDS011;30145;48.874;10.186;2023-07-16T09:54:14;2.27;;;1.40;;
44438;SDS011;30145;48.874;10.186;2023-07-16T09:56:45;3.53;;;1.40;;
44438;SDS011;30145;48.874;10.186;2023-07-16T09:59:15;4.17;;;1.50;;
44438;SDS011;30145;48.874;10.186;2023-07-16T10:01:43;3.67;;;1.57;;
44438;SDS011;30145;48.874;10.186;2023-07-16T10:04:14;3.47;;;1.43;;
44438;SDS011;30145;48.874;10.186;2023-07-16T10:09:37;2.70;;;1.57;;
44438;SDS011;30145;48.874;10.186;2023-07-16T10:12:15;3.37;;;1.50;;
44438;SDS011;30145;48.874;10.186;2023-07-16T10:14:45;4.43;;;1.53;;
44438;SDS011;30145;48.874;10.186;2023-07-16T10:17:17;5.93;;;2.00;;
44438;SDS011;30145;48.874;10.186;2023-07-16T10:22:37;5.17;;;1.50;;
44438;SDS011;30145;48.874;10.186;2023-07-16T10:27:47;3.27;;;1.70;;
44438;SDS011;30145;48.874;10.186;2023-07-16T10:30:15;4.43;;;1.53;;
44438;SDS011;30145;48.874;10.186;2023-07-16T10:32:42;4.60;;;1.60;;
44438;SDS011;30145;48.874;10.186;2023-07-16T10:35:10;4.23;;;1.73;;
44438;SDS011;30145;48.874;10.186;2023-07-16T10:37:38;4.93;;;2.03;;
44438;SDS011;30145;48.874;10.186;2023-07-16T10:40:09;2.63;;;1.47;;
44438;SDS011;30145;48.874;10.186;2023-07-16T10:42:39;6.60;;;2.40;;
44438;SDS011;30145;48.874;10.186;2023-07-16T10:45:07;1.87;;;1.30;;
44438;SDS011;30145;48.874;10.186;2023-07-16T10:47:36;3.43;;;1.57;;
44438;SDS011;30145;48.874;10.186;2023-07-16T10:50:05;3.13;;;1.77;;
44438;SDS011;30145;48.874;10.186;2023-07-16T10:52:37;2.80;;;1.40;;
44438;SDS011;30145;48.874;10.186;2023-07-16T10:55:05;2.77;;;1.47;;
44438;SDS011;30145;48.874;10.186;2023-07-16T10:57:32;3.03;;;1.57;;
44438;SDS011;30145;48.874;10.186;2023-07-16T10:59:59;3.20;;;1.60;;
44438;SDS011;30145;48.874;10.186;2023-07-16T11:02:27;2.93;;;1.67;;
44438;SDS011;30145;48.874;10.186;2023-07-16T11:04:54;2.77;;;1.50;;
44438;SDS011;30145;48.874;10.186;2023-07-16T11:07:21;2.40;;;1.43;;
44438;SDS011;30145;48.874;10.186;2023-07-16T11:09:49;4.07;;;1.63;;
44438;SDS011;30145;48.874;10.186;2023-07-16T11:12:18;2.77;;;1.70;;
44438;SDS011;30145;48.874;10.186;2023-07-16T11:14:48;3.83;;;1.60;;
44438;SDS011;30145;48.874;10.186;2023-07-16T11:17:19;2.30;;;1.33;;
44438;SDS011;30145;48.874;10.186;2023-07-16T11:19:47;3.33;;;1.60;;
44438;SDS011;30145;48.874;10.186;2023-07-16T11:22:15;1.87;;;1.47;;
44438;SDS011;30145;48.874;10.186;2023-07-16T11:24:43;3.73;;;1.47;;
44438;SDS011;30145;48.874;10.186;2023-07-16T11:29:51;2.23;;;1.30;;
44438;SDS011;30145;48.874;10.186;2023-07-16T11:32:41;1.67;;;1.43;;
44438;SDS011;30145;48.874;10.186;2023-07-16T11:35:11;2.37;;;1.80;;
44438;SDS011;30145;48.874;10.186;2023-07-16T11:37:43;5.67;;;1.70;;
44438;SDS011;30145;48.874;10.186;2023-07-16T11:40:11;2.37;;;1.50;;
44438;SDS011;30145;48.874;10.186;2023-07-16T11:42:42;5.23;;;1.67;;
44438;SDS011;30145;48.874;10.186;2023-07-16T11:47:44;3.57;;;1.73;;
44438;SDS011;30145;48.874;10.186;2023-07-16T11:50:11;3.13;;;1.63;;
44438;SDS011;30145;48.874;10.186;2023-07-16T11:52:38;3.60;;;1.80;;
44438;SDS011;30145;48.874;10.186;2023-07-16T11:55:06;3.03;;;1.73;;
44438;SDS011;30145;48.874;10.186;2023-07-16T11:57:34;2.80;;;1.27;;
44438;SDS011;30145;48.874;10.186;2023-07-16T12:00:02;6.27;;;1.70;;
44438;SDS011;30145;48.874;10.186;2023-07-16T12:02:32;2.63;;;1.70;;
44438;SDS011;30145;48.874;10.186;2023-07-16T12:04:59;2.70;;;1.90;;
44438;SDS011;30145;48.874;10.186;2023-07-16T12:07:34;4.00;;;1.83;;
44438;SDS011;30145;48.874;10.186;2023-07-16T12:10:04;3.57;;;1.67;;
44438;SDS011;30145;48.874;10.186;2023-07-16T12:12:33;3.67;;;1.77;;
44438;SDS011;30145;48.874;10.186;2023-07-16T12:15:05;2.17;;;1.70;;
44438;SDS011;30145;48.874;10.186;2023-07-16T12:17:32;3.10;;;1.63;;
44438;SDS011;30145;48.874;10.186;2023-07-16T12:20:00;3.43;;;1.80;;
44438;SDS011;30145;48.874;10.186;2023-07-16T12:22:27;5.25;;;1.67;;
44438;SDS011;30145;48.874;10.186;2023-07-16T12:24:55;3.97;;;1.83;;
44438;SDS011;30145;48.874;10.186;2023-07-16T12:27:23;3.00;;;1.70;;
44438;SDS011;30145;48.874;10.186;2023-07-16T12:29:50;3.10;;;1.67;;
44438;SDS011;30145;48.874;10.186;2023-07-16T12:32:19;3.37;;;1.60;;
44438;SDS011;30145;48.874;10.186;2023-07-16T12:34:47;2.40;;;1.33;;
44438;SDS011;30145;48.874;10.186;2023-07-16T12:37:14;3.83;;;1.83;;
44438;SDS011;30145;48.874;10.186;2023-07-16T12:39:41;2.43;;;1.63;;
44438;SDS011;30145;48.874;10.186;2023-07-16T12:42:08;2.40;;;1.40;;
44438;SDS011;30145;48.874;10.186;2023-07-16T12:44:34;2.73;;;1.60;;
44438;SDS011;30145;48.874;10.186;2023-07-16T12:47:01;1.83;;;1.53;;
44438;SDS011;30145;48.874;10.186;2023-07-16T12:49:30;2.60;;;1.70;;
44438;SDS011;30145;48.874;10.186;2023-07-16T12:51:57;2.65;;;1.60;;
44438;SDS011;30145;48.874;10.186;2023-07-16T12:54:24;3.27;;;1.70;;
44438;SDS011;30145;48.874;10.186;2023-07-16T12:56:51;3.07;;;1.57;;
44438;SDS011;30145;48.874;10.186;2023-07-16T12:59:18;2.22;;;1.30;;
44438;SDS011;30145;48.874;10.186;2023-07-16T13:01:45;1.87;;;1.53;;
44438;SDS011;30145;48.874;10.186;2023-07-16T13:04:12;3.43;;;1.43;;
44438;SDS011;30145;48.874;10.186;2023-07-16T13:06:39;1.67;;;1.50;;
44438;SDS011;30145;48.874;10.186;2023-07-16T13:09:06;2.57;;;1.60;;
44438;SDS011;30145;48.874;10.186;2023-07-16T13:11:34;2.47;;;1.60;;
44438;SDS011;30145;48.874;10.186;2023-07-16T13:14:01;1.93;;;1.43;;
44438;SDS011;30145;48.874;10.186;2023-07-16T13:16:28;2.07;;;1.53;;
44438;SDS011;30145;48.874;10.186;2023-07-16T13:18:55;3.10;;;1.80;;
44438;SDS011;30145;48.874;10.186;2023-07-16T13:21:22;2.20;;;1.80;;
44438;SDS011;30145;48.874;10.186;2023-07-16T13:23:49;3.80;;;2.10;;
44438;SDS011;30145;48.874;10.186;2023-07-16T13:26:16;3.37;;;1.60;;
44438;SDS011;30145;48.874;10.186;2023-07-16T13:28:43;4.17;;;1.63;;
44438;SDS011;30145;48.874;10.186;2023-07-16T13:31:10;2.03;;;1.57;;
44438;SDS011;30145;48.874;10.186;2023-07-16T13:33:39;2.40;;;1.40;;
44438;SDS011;30145;48.874;10.186;2023-07-16T13:36:06;2.70;;;1.60;;
44438;SDS011;30145;48.874;10.186;2023-07-16T13:38:33;4.50;;;1.63;;
44438;SDS011;30145;48.874;10.186;2023-07-16T13:41:00;2.20;;;1.57;;
44438;SDS011;30145;48.874;10.186;2023-07-16T13:43:27;3.13;;;1.50;;
44438;SDS011;30145;48.874;10.186;2023-07-16T13:45:55;2.73;;;1.47;;
44438;SDS011;30145;48.874;10.186;2023-07-16T13:48:22;2.67;;;1.47;;
44438;SDS011;30145;48.874;10.186;2023-07-16T13:50:49;2.50;;;1.57;;
44438;SDS011;30145;48.874;10.186;2023-07-16T13:53:16;2.85;;;1.70;;
44438;SDS011;30145;48.874;10.186;2023-07-16T13:55:43;2.30;;;1.50;;
44438;SDS011;30145;48.874;10.186;2023-07-16T13:58:11;3.03;;;1.50;;
44438;SDS011;30145;48.874;10.186;2023-07-16T14:00:37;5.85;;;1.50;;
44438;SDS011;30145;48.874;10.186;2023-07-16T14:03:04;2.23;;;1.50;;
44438;SDS011;30145;48.874;10.186;2023-07-16T14:05:32;2.10;;;1.70;;
44438;SDS011;30145;48.874;10.186;2023-07-16T14:08:05;1.83;;;1.43;;
44438;SDS011;30145;48.874;10.186;2023-07-16T14:10:32;2.10;;;1.60;;
44438;SDS011;30145;48.874;10.186;2023-07-16T14:13:00;2.53;;;1.50;;
44438;SDS011;30145;48.874;10.186;2023-07-16T14:15:27;6.68;;;1.60;;
